Time;durP1;ratioP1;P1;durP2;ratioP2;P2;SDS_P1;SDS_P2;PMS_P1;PMS_P2;Temp;Humidity;BMP_temperature;BMP_pressure;BME280_temperature;BME280_humidity;BME280_pressure;Samples;Min_cycle;Max_cycle;Signal;HPM_P1;HPM_P2
2022/07/15 00:01:33;;;;;;;20.58;8.98;;;;;;;14.08;75.93;102138.44;5012295;28;20061;-59
2022/07/15 00:03:59;;;;;;;19.35;8.70;;;;;;;14.08;75.80;102144.00;5012769;28;20033;-60
2022/07/15 00:06:25;;;;;;;18.33;8.75;;;;;;;14.03;75.72;102150.44;5011943;28;20076;-59
2022/07/15 00:08:51;;;;;;;23.92;9.35;;;;;;;13.98;75.74;102150.53;4994538;28;20022;-59
2022/07/15 00:11:16;;;;;;;19.88;8.63;;;;;;;13.97;75.87;102145.28;4994364;28;20025;-60
2022/07/15 00:13:41;;;;;;;20.75;9.00;;;;;;;13.90;75.89;102142.84;5011987;28;20026;-58
2022/07/15 00:16:07;;;;;;;17.58;8.90;;;;;;;13.92;76.04;102140.59;5012281;28;20025;-58
2022/07/15 00:18:32;;;;;;;19.42;8.85;;;;;;;13.94;75.72;102149.44;5012240;28;20121;-57
2022/07/15 00:20:58;;;;;;;19.02;8.48;;;;;;;13.95;75.75;102144.72;5011161;28;20041;-57
2022/07/15 00:23:23;;;;;;;17.67;8.68;;;;;;;13.86;76.14;102150.97;4993986;28;20389;-59
2022/07/15 00:25:48;;;;;;;21.67;8.57;;;;;;;13.82;76.18;102149.88;5011701;28;20041;-57
2022/07/15 00:28:14;;;;;;;18.75;8.57;;;;;;;13.79;76.30;102155.22;5012166;28;20084;-57
2022/07/15 00:30:41;;;;;;;19.27;8.80;;;;;;;13.67;76.27;102141.72;4994164;28;20469;-58
2022/07/15 00:33:08;;;;;;;19.02;8.43;;;;;;;13.75;76.67;102151.34;5011997;28;20029;-57
2022/07/15 00:35:36;;;;;;;18.73;8.60;;;;;;;13.69;76.68;102143.09;5010894;28;20029;-58
2022/07/15 00:38:03;;;;;;;18.00;9.15;;;;;;;13.60;77.56;102142.06;5011240;28;20038;-57
2022/07/15 00:40:29;;;;;;;17.92;8.75;;;;;;;13.48;77.88;102139.72;4993688;28;20125;-57
2022/07/15 00:42:54;;;;;;;20.13;8.90;;;;;;;13.50;77.60;102134.69;4993960;28;20038;-58
2022/07/15 00:45:21;;;;;;;17.92;8.63;;;;;;;13.50;77.73;102139.41;5010665;28;20478;-59
2022/07/15 00:47:49;;;;;;;20.35;9.15;;;;;;;13.34;78.22;102120.09;5011378;28;20038;-57
2022/07/15 00:50:16;;;;;;;19.80;8.52;;;;;;;13.40;78.74;102132.00;4993262;28;20032;-58
2022/07/15 00:52:45;;;;;;;20.75;9.52;;;;;;;13.35;78.96;102132.03;4993902;28;20396;-59
2022/07/15 00:55:12;;;;;;;19.77;8.68;;;;;;;13.40;78.88;102137.56;5011311;28;20437;-58
2022/07/15 00:57:44;;;;;;;19.10;9.45;;;;;;;13.38;79.26;102135.03;5010911;28;20097;-57
2022/07/15 01:00:11;;;;;;;18.50;9.38;;;;;;;13.31;78.53;102123.44;4993360;28;20022;-59
2022/07/15 01:02:39;;;;;;;18.85;9.35;;;;;;;13.23;78.91;102124.09;5010819;28;20048;-59
2022/07/15 01:05:07;;;;;;;20.67;9.38;;;;;;;13.22;79.74;102134.38;5010278;28;20033;-57
2022/07/15 01:07:33;;;;;;;21.13;9.07;;;;;;;13.25;79.59;102133.78;5010708;28;20053;-59
2022/07/15 01:09:59;;;;;;;18.98;9.45;;;;;;;13.25;79.41;102142.13;5010710;28;20029;-57
2022/07/15 01:12:26;;;;;;;20.30;9.55;;;;;;;13.31;79.41;102134.56;5010170;28;20452;-58
2022/07/15 01:14:52;;;;;;;18.15;8.80;;;;;;;13.39;78.98;102135.91;4992520;28;20168;-58
2022/07/15 01:17:18;;;;;;;20.42;9.27;;;;;;;13.38;78.71;102132.25;5024840;23;20136;-58
2022/07/15 01:19:43;;;;;;;18.73;8.98;;;;;;;13.33;78.88;102132.31;5010213;28;20065;-59
2022/07/15 01:22:09;;;;;;;21.90;9.50;;;;;;;13.25;79.37;102133.78;5009625;28;20060;-58
2022/07/15 01:24:34;;;;;;;19.80;9.52;;;;;;;13.16;80.11;102137.50;5010242;28;20033;-60
2022/07/15 01:27:00;;;;;;;20.15;9.60;;;;;;;13.09;80.55;102138.66;5010261;28;20033;-59
2022/07/15 01:29:26;;;;;;;18.70;9.40;;;;;;;13.12;80.10;102134.47;5009911;28;20029;-59
2022/07/15 01:31:52;;;;;;;20.00;9.73;;;;;;;13.05;80.52;102140.38;5009019;28;20048;-60
2022/07/15 01:34:17;;;;;;;18.08;8.55;;;;;;;13.08;80.85;102137.00;5009479;28;20038;-58
2022/07/15 01:36:42;;;;;;;21.45;9.10;;;;;;;13.01;80.46;102135.69;5009226;28;20349;-60
2022/07/15 01:39:08;;;;;;;18.58;8.95;;;;;;;13.04;80.53;102137.88;5009662;28;20054;-58
2022/07/15 01:41:33;;;;;;;18.20;8.68;;;;;;;13.09;80.27;102140.59;5009797;28;20030;-59
2022/07/15 01:43:58;;;;;;;20.60;9.27;;;;;;;13.04;80.38;102151.75;5009264;28;20053;-58
2022/07/15 01:46:23;;;;;;;19.23;8.95;;;;;;;12.87;81.42;102147.44;5009611;28;20034;-60
2022/07/15 01:51:33;;;;;;;20.42;9.20;;;;;;;12.90;81.46;102152.44;5009784;28;20044;-60
2022/07/15 01:53:58;;;;;;;20.13;9.40;;;;;;;12.89;81.68;102149.97;5009721;28;20132;-59
2022/07/15 01:56:23;;;;;;;22.08;9.57;;;;;;;12.79;82.24;102148.91;5009716;28;20030;-60
2022/07/15 01:58:49;;;;;;;21.23;9.90;;;;;;;12.74;82.34;102159.22;5010000;28;20030;-59
2022/07/15 02:01:14;;;;;;;19.35;9.68;;;;;;;12.80;82.37;102152.50;5009990;28;20030;-60
2022/07/15 02:03:40;;;;;;;19.55;9.30;;;;;;;12.89;82.47;102152.72;5009997;28;20042;-59
2022/07/15 02:06:05;;;;;;;21.88;9.80;;;;;;;12.91;81.99;102151.31;5009662;28;20026;-59
2022/07/15 02:08:31;;;;;;;21.73;9.63;;;;;;;12.98;81.52;102153.78;5009835;28;20030;-60
2022/07/15 02:10:56;;;;;;;21.00;9.95;;;;;;;12.87;81.75;102161.34;5009193;28;20446;-59
2022/07/15 02:13:21;;;;;;;21.25;9.73;;;;;;;12.83;82.45;102164.97;5009217;28;20461;-59
2022/07/15 02:15:47;;;;;;;20.83;9.80;;;;;;;12.82;82.83;102158.63;5009385;28;20030;-59
2022/07/15 02:18:12;;;;;;;20.25;9.98;;;;;;;12.80;83.20;102163.63;5009471;28;20049;-59
2022/07/15 02:20:38;;;;;;;21.13;9.70;;;;;;;12.79;82.99;102159.19;5009841;28;20122;-60
2022/07/15 02:23:03;;;;;;;19.60;9.38;;;;;;;12.82;83.06;102150.28;5009775;28;20330;-59
2022/07/15 02:25:31;;;;;;;21.60;10.00;;;;;;;12.82;83.68;102152.22;5009561;28;20105;-60
2022/07/15 02:27:59;;;;;;;21.60;9.55;;;;;;;12.78;83.51;102160.28;5009717;28;20034;-60
2022/07/15 02:30:27;;;;;;;20.70;9.00;;;;;;;12.70;83.87;102147.03;4992028;28;20092;-60
2022/07/15 02:32:52;;;;;;;19.92;9.25;;;;;;;12.67;84.20;102145.66;5009212;28;20022;-60
2022/07/15 02:35:17;;;;;;;21.52;9.73;;;;;;;12.58;84.53;102147.41;5009505;28;20418;-59
2022/07/15 02:37:43;;;;;;;21.85;9.88;;;;;;;12.55;84.54;102147.97;5009582;28;20038;-59
2022/07/15 02:40:10;;;;;;;19.95;9.40;;;;;;;12.54;84.75;102151.84;5009436;28;20104;-60
2022/07/15 02:42:35;;;;;;;19.30;9.18;;;;;;;12.56;84.56;102144.91;5007612;28;20108;-60
2022/07/15 02:45:01;;;;;;;21.52;9.85;;;;;;;12.52;84.82;102145.75;5012401;28;20466;-59
2022/07/15 02:47:26;;;;;;;21.55;10.00;;;;;;;12.48;84.96;102145.50;5012966;28;20387;-58
2022/07/15 02:49:51;;;;;;;19.58;9.68;;;;;;;12.46;84.65;102145.81;5012995;28;20125;-59
2022/07/15 02:52:17;;;;;;;19.40;9.93;;;;;;;12.42;85.16;102150.25;5013436;28;20040;-59
2022/07/15 02:54:42;;;;;;;19.50;9.88;;;;;;;12.38;85.15;102157.50;5013204;28;20038;-60
2022/07/15 02:57:07;;;;;;;18.42;9.60;;;;;;;12.33;85.86;102155.59;5013241;28;20041;-60
2022/07/15 02:59:33;;;;;;;21.27;9.68;;;;;;;12.38;85.50;102162.22;5012676;28;20022;-60
2022/07/15 03:01:58;;;;;;;20.48;9.77;;;;;;;12.33;85.55;102163.06;5013153;28;20032;-60
2022/07/15 03:04:24;;;;;;;19.98;10.07;;;;;;;12.30;85.83;102167.25;5012882;28;20087;-60
2022/07/15 03:06:49;;;;;;;21.60;10.30;;;;;;;12.27;85.38;102167.84;5012815;28;20030;-57
2022/07/15 03:09:14;;;;;;;19.95;9.75;;;;;;;12.31;85.27;102179.19;5012893;28;20088;-59
2022/07/15 03:11:39;;;;;;;20.08;9.95;;;;;;;12.30;85.09;102180.31;5012133;28;20120;-58
2022/07/15 03:14:05;;;;;;;22.52;9.88;;;;;;;12.39;84.69;102178.59;5012154;28;20034;-59
2022/07/15 03:16:30;;;;;;;22.42;9.80;;;;;;;12.39;84.73;102180.53;5012249;28;20056;-58
2022/07/15 03:18:55;;;;;;;22.20;9.95;;;;;;;12.36;85.32;102189.44;5012459;28;20191;-58
2022/07/15 03:21:21;;;;;;;20.27;10.60;;;;;;;12.29;85.28;102184.19;5011996;28;20021;-59
2022/07/15 03:23:47;;;;;;;20.17;9.52;;;;;;;12.32;85.14;102189.19;5012928;28;20042;-59
2022/07/15 03:26:12;;;;;;;19.83;9.70;;;;;;;12.35;85.60;102188.59;5012846;28;20038;-60
2022/07/15 03:28:37;;;;;;;18.45;9.25;;;;;;;12.35;84.77;102196.09;5012656;28;20018;-57
2022/07/15 03:31:03;;;;;;;20.17;9.68;;;;;;;12.36;84.94;102200.53;5011891;28;20045;-58
2022/07/15 03:33:28;;;;;;;21.02;10.10;;;;;;;12.45;84.81;102202.41;5012373;28;20018;-58
2022/07/15 03:35:53;;;;;;;20.02;10.98;;;;;;;12.41;84.97;102211.59;5012471;28;20128;-59
2022/07/15 03:38:19;;;;;;;21.38;11.38;;;;;;;12.32;84.94;102206.66;5012306;28;20080;-57
2022/07/15 03:40:44;;;;;;;19.98;9.80;;;;;;;12.32;85.82;102203.88;5012508;28;20371;-59
2022/07/15 03:43:09;;;;;;;20.15;9.98;;;;;;;12.45;85.25;102204.38;5012272;28;20034;-60
2022/07/15 03:45:35;;;;;;;20.15;9.63;;;;;;;12.56;85.28;102206.00;5012509;28;20022;-59
2022/07/15 03:48:00;;;;;;;20.38;9.68;;;;;;;12.61;85.09;102205.94;5012006;28;20069;-59
2022/07/15 03:50:25;;;;;;;20.40;9.38;;;;;;;12.68;84.71;102202.00;5011950;28;20465;-57
2022/07/15 03:52:51;;;;;;;20.05;9.45;;;;;;;12.79;84.11;102210.00;5011850;28;20049;-59
2022/07/15 03:55:16;;;;;;;19.88;9.13;;;;;;;12.83;84.07;102209.41;5011051;28;20168;-59
2022/07/15 03:57:41;;;;;;;21.05;9.18;;;;;;;12.90;83.78;102207.13;5011620;28;20052;-58
2022/07/15 04:00:07;;;;;;;18.73;9.10;;;;;;;12.91;83.79;102214.34;5012010;28;20026;-60
2022/07/15 04:02:33;;;;;;;19.48;9.07;;;;;;;12.91;83.64;102212.41;5011847;28;20505;-60
2022/07/15 04:04:58;;;;;;;19.80;9.10;;;;;;;12.90;83.45;102213.53;5011520;28;20041;-60
2022/07/15 04:07:23;;;;;;;22.27;9.15;;;;;;;12.91;83.58;102211.56;5011577;28;20490;-59
2022/07/15 04:09:48;;;;;;;21.80;9.95;;;;;;;12.86;83.61;102222.72;5011862;28;20037;-59
2022/07/15 04:12:14;;;;;;;19.90;8.95;;;;;;;12.80;84.19;102206.09;5011746;28;20040;-59
2022/07/15 04:14:39;;;;;;;19.55;9.80;;;;;;;12.82;84.48;102224.41;5011250;28;20052;-59
2022/07/15 04:17:05;;;;;;;21.05;9.73;;;;;;;12.82;83.86;102216.94;5010911;28;20034;-60
2022/07/15 04:19:31;;;;;;;17.95;9.32;;;;;;;12.89;83.62;102219.38;5011460;28;20026;-59
2022/07/15 04:21:56;;;;;;;19.38;9.85;;;;;;;12.90;83.64;102219.09;5011377;28;20068;-58
2022/07/15 04:24:21;;;;;;;20.00;9.30;;;;;;;12.99;83.33;102219.28;5011232;28;20053;-57
2022/07/15 04:26:47;;;;;;;17.30;9.25;;;;;;;13.04;83.17;102210.94;5009318;28;20080;-60
2022/07/15 04:29:12;;;;;;;21.17;8.95;;;;;;;13.17;82.75;102214.19;5011157;28;20496;-60
2022/07/15 04:31:37;;;;;;;19.23;9.10;;;;;;;13.25;82.49;102211.59;5010884;28;20022;-58
2022/07/15 04:34:03;;;;;;;20.55;8.90;;;;;;;13.27;81.81;102214.91;5009380;28;20113;-59
2022/07/15 04:36:28;;;;;;;20.25;9.40;;;;;;;13.30;81.75;102219.06;5010525;28;20074;-59
2022/07/15 04:38:53;;;;;;;18.08;8.93;;;;;;;13.38;81.54;102221.19;5011132;28;20114;-60
2022/07/15 04:41:19;;;;;;;20.52;9.32;;;;;;;13.38;81.60;102220.38;5010912;28;20034;-60
2022/07/15 04:43:44;;;;;;;21.70;9.18;;;;;;;13.34;81.65;102222.06;5011185;28;20041;-60
2022/07/15 04:46:09;;;;;;;18.58;9.23;;;;;;;13.33;82.02;102225.97;5010111;28;20452;-59
2022/07/15 04:51:18;;;;;;;19.08;8.52;;;;;;;13.52;81.11;102229.72;5010568;28;20073;-60
2022/07/15 04:53:44;;;;;;;20.65;9.82;;;;;;;13.48;81.22;102231.44;5010466;28;20053;-60
2022/07/15 04:56:09;;;;;;;21.98;9.00;;;;;;;13.48;81.03;102234.22;5010806;28;20531;-60
2022/07/15 04:58:34;;;;;;;18.83;9.50;;;;;;;13.39;81.61;102234.00;5010777;28;20057;-60
2022/07/15 05:01:00;;;;;;;19.35;9.60;;;;;;;13.43;81.63;102228.69;5010131;28;20559;-59
2022/07/15 05:03:25;;;;;;;20.80;9.25;;;;;;;13.47;81.53;102240.91;5010360;28;20093;-59
2022/07/15 05:05:50;;;;;;;20.95;9.73;;;;;;;13.52;81.28;102234.47;5010199;28;20488;-61
2022/07/15 05:08:16;;;;;;;19.27;9.07;;;;;;;13.55;81.21;102231.13;5010233;28;20030;-59
2022/07/15 05:10:41;;;;;;;23.33;9.20;;;;;;;13.62;81.07;102239.09;5010492;28;20030;-59
2022/07/15 05:13:07;;;;;;;18.52;8.80;;;;;;;13.56;81.15;102229.97;5010513;28;20066;-60
2022/07/15 05:15:33;;;;;;;18.48;8.85;;;;;;;13.55;81.10;102234.72;5010205;28;20433;-58
2022/07/15 05:17:59;;;;;;;17.88;8.85;;;;;;;13.56;80.73;102236.38;5009785;28;20137;-60
2022/07/15 05:20:24;;;;;;;17.88;8.77;;;;;;;13.66;80.95;102242.94;5010335;28;20109;-60
2022/07/15 05:22:49;;;;;;;18.83;8.98;;;;;;;13.70;80.25;102244.00;5010072;28;20175;-61
2022/07/15 05:25:15;;;;;;;20.30;9.18;;;;;;;13.75;79.72;102232.84;5010515;28;20030;-60
2022/07/15 05:27:40;;;;;;;19.58;9.18;;;;;;;13.83;79.73;102248.06;5010476;28;20167;-59
2022/07/15 05:30:08;;;;;;;20.15;9.25;;;;;;;13.88;79.52;102239.66;4992066;28;20029;-59
2022/07/15 05:32:33;;;;;;;18.58;8.98;;;;;;;14.00;78.48;102240.09;5010498;28;20072;-59
2022/07/15 05:34:58;;;;;;;19.15;8.60;;;;;;;14.09;77.98;102250.56;5009732;28;20037;-60
2022/07/15 05:37:23;;;;;;;20.30;9.05;;;;;;;14.13;78.57;102244.13;5010674;28;20109;-59
2022/07/15 05:39:55;;;;;;;18.25;9.48;;;;;;;14.18;78.14;102240.44;5010404;28;20102;-59
2022/07/15 05:42:21;;;;;;;19.88;9.10;;;;;;;14.21;77.92;102239.88;5010512;28;20037;-59
2022/07/15 05:44:47;;;;;;;19.58;9.13;;;;;;;14.27;77.78;102241.44;4992343;28;20030;-59
2022/07/15 05:47:13;;;;;;;16.58;9.00;;;;;;;14.32;77.56;102237.78;5009998;28;20101;-58
2022/07/15 05:49:38;;;;;;;17.20;8.43;;;;;;;14.30;76.81;102234.44;5010351;28;20160;-59
2022/07/15 05:52:03;;;;;;;18.75;9.00;;;;;;;14.33;76.26;102242.22;5010120;28;20034;-58
2022/07/15 05:54:29;;;;;;;17.10;9.02;;;;;;;14.25;76.24;102218.66;5009944;28;20056;-57
2022/07/15 05:56:54;;;;;;;16.42;9.02;;;;;;;14.35;76.19;102232.44;5009570;28;20028;-59
2022/07/15 05:59:19;;;;;;;17.65;8.32;;;;;;;14.42;76.01;102232.06;4998639;28;20034;-59
2022/07/15 06:01:45;;;;;;;18.48;8.70;;;;;;;14.57;75.25;102230.19;4972843;28;20412;-59
2022/07/15 06:04:10;;;;;;;20.98;8.70;;;;;;;14.61;75.11;102211.78;4990313;28;20113;-59
2022/07/15 06:06:35;;;;;;;19.70;8.80;;;;;;;14.75;74.90;102232.19;4993358;28;20026;-60
2022/07/15 06:09:00;;;;;;;19.00;9.00;;;;;;;14.80;74.57;102232.13;5008192;28;20476;-58
2022/07/15 06:11:26;;;;;;;17.70;8.30;;;;;;;14.90;73.45;102230.31;5007665;28;20045;-60
2022/07/15 06:13:51;;;;;;;19.30;8.77;;;;;;;14.97;73.53;102231.59;5007403;28;20367;-57
2022/07/15 06:16:16;;;;;;;17.20;8.18;;;;;;;15.01;70.43;102233.78;5006012;28;20052;-59
2022/07/15 06:18:42;;;;;;;18.27;8.35;;;;;;;15.07;71.33;102235.34;5007356;28;20424;-59
2022/07/15 06:21:07;;;;;;;15.57;8.13;;;;;;;15.10;71.20;102237.53;5011208;28;20492;-59
2022/07/15 06:23:32;;;;;;;19.38;8.35;;;;;;;15.13;70.35;102242.50;5011032;28;20048;-57
2022/07/15 06:25:57;;;;;;;17.75;8.10;;;;;;;15.12;70.02;102227.72;5003751;28;20103;-60
2022/07/15 06:28:23;;;;;;;17.15;8.00;;;;;;;15.18;69.79;102231.25;4984217;28;20101;-58
2022/07/15 06:30:48;;;;;;;16.98;7.95;;;;;;;15.24;68.68;102235.63;5004579;28;20113;-58
2022/07/15 06:33:13;;;;;;;19.33;7.78;;;;;;;15.37;69.27;102227.59;5011493;28;20476;-59
2022/07/15 06:35:39;;;;;;;18.80;8.40;;;;;;;15.42;68.95;102233.13;5011922;28;20102;-58
2022/07/15 06:38:04;;;;;;;14.55;7.80;;;;;;;15.52;68.88;102226.50;5011468;28;20092;-59
2022/07/15 06:40:30;;;;;;;12.57;7.30;;;;;;;15.54;65.84;102221.47;5011016;28;20033;-58
2022/07/15 06:42:55;;;;;;;16.77;8.05;;;;;;;15.52;67.43;102229.31;5011159;28;20104;-59
2022/07/15 06:45:20;;;;;;;18.73;8.20;;;;;;;15.52;67.16;102226.50;5011580;28;20422;-60
2022/07/15 06:47:46;;;;;;;15.88;7.63;;;;;;;15.44;67.38;102234.47;4999698;28;20109;-59
2022/07/15 06:50:11;;;;;;;17.20;8.10;;;;;;;15.49;67.79;102235.50;4991721;28;20034;-60
2022/07/15 06:52:36;;;;;;;18.70;7.97;;;;;;;15.58;67.02;102228.09;4991600;28;20034;-59
2022/07/15 06:55:03;;;;;;;14.02;7.70;;;;;;;15.68;66.31;102229.84;4991483;28;20397;-60
2022/07/15 06:57:28;;;;;;;16.33;7.40;;;;;;;15.75;64.22;102231.13;4991660;28;20034;-59
2022/07/15 06:59:54;;;;;;;17.25;7.45;;;;;;;15.82;64.87;102235.47;4992534;28;20058;-60
2022/07/15 07:02:19;;;;;;;14.88;7.75;;;;;;;15.83;65.14;102232.34;4973818;28;20129;-61
2022/07/15 07:04:45;;;;;;;16.58;7.35;;;;;;;16.01;64.66;102229.84;4991434;28;20085;-58
2022/07/15 07:07:10;;;;;;;16.33;7.75;;;;;;;16.10;64.13;102230.75;4991539;28;20143;-59
2022/07/15 07:09:35;;;;;;;18.50;7.57;;;;;;;16.21;64.23;102225.78;4991510;28;20073;-60
2022/07/15 07:12:01;;;;;;;17.38;7.35;;;;;;;16.35;63.23;102225.78;4991028;28;20030;-58
2022/07/15 07:14:26;;;;;;;12.52;7.25;;;;;;;16.39;63.14;102232.38;4991077;28;20177;-57
2022/07/15 07:16:51;;;;;;;14.90;6.97;;;;;;;16.28;62.09;102234.56;4973395;28;20099;-58
2022/07/15 07:19:17;;;;;;;16.67;7.60;;;;;;;16.31;61.81;102235.91;4991123;28;20458;-59
2022/07/15 07:21:42;;;;;;;13.10;7.03;;;;;;;16.38;59.95;102244.72;4991342;28;20109;-59
2022/07/15 07:24:07;;;;;;;16.20;7.57;;;;;;;16.40;60.26;102244.38;4991331;28;20058;-60
2022/07/15 07:26:33;;;;;;;14.60;6.93;;;;;;;16.49;60.88;102242.50;4989378;28;20415;-60
2022/07/15 07:28:59;;;;;;;15.95;7.18;;;;;;;16.50;59.42;102242.19;4990700;28;20045;-59
2022/07/15 07:31:26;;;;;;;12.07;6.90;;;;;;;16.55;60.33;102241.25;4989496;28;20482;-60
2022/07/15 07:33:53;;;;;;;14.50;7.00;;;;;;;16.68;59.33;102246.00;4973520;28;20583;-59
2022/07/15 07:36:19;;;;;;;12.77;6.60;;;;;;;16.79;56.71;102245.78;4991135;28;20132;-61
2022/07/15 07:38:44;;;;;;;12.95;6.75;;;;;;;16.94;56.92;102248.22;4990887;28;20065;-59
2022/07/15 07:41:10;;;;;;;16.08;7.22;;;;;;;16.99;57.30;102250.91;4990758;28;20135;-59
2022/07/15 07:43:37;;;;;;;13.60;7.47;;;;;;;17.13;58.33;102247.22;4991103;28;20030;-61
2022/07/15 07:46:02;;;;;;;15.07;7.28;;;;;;;17.25;58.60;102257.84;4991003;28;20038;-61
2022/07/15 07:48:29;;;;;;;14.25;6.78;;;;;;;17.29;58.34;102242.09;4990574;28;20383;-60
2022/07/15 07:50:54;;;;;;;15.25;6.93;;;;;;;17.48;57.65;102257.84;4994626;28;20037;-60
2022/07/15 07:53:20;;;;;;;15.48;7.40;;;;;;;17.60;55.93;102258.09;5004432;28;20469;-58
2022/07/15 07:55:45;;;;;;;15.32;7.30;;;;;;;17.65;56.79;102252.34;5009196;28;20042;-59
2022/07/15 07:58:14;;;;;;;13.18;7.40;;;;;;;17.63;57.05;102257.44;5010043;28;20176;-58
2022/07/15 08:00:39;;;;;;;13.32;7.30;;;;;;;17.66;57.29;102256.00;5010559;28;20136;-59
2022/07/15 08:03:04;;;;;;;16.40;7.50;;;;;;;17.53;57.06;102266.94;5010097;28;20028;-58
2022/07/15 08:05:29;;;;;;;14.80;7.20;;;;;;;17.51;56.59;102258.03;5010492;28;20037;-58
2022/07/15 08:08:13;;;;;;;15.15;6.75;;;;;;;17.51;55.96;102244.03;5010116;28;20084;-57
2022/07/15 08:10:40;;;;;;;15.77;7.10;;;;;;;17.89;55.78;102249.19;5010488;28;20084;-59
2022/07/15 08:13:05;;;;;;;14.20;7.05;;;;;;;18.10;55.83;102245.84;5010014;28;20053;-60
2022/07/15 08:15:30;;;;;;;14.75;7.07;;;;;;;18.09;55.61;102255.38;5010134;28;20362;-59
2022/07/15 08:17:56;;;;;;;15.18;7.15;;;;;;;17.98;55.45;102240.03;5010045;28;20050;-60
2022/07/15 08:20:21;;;;;;;14.90;7.05;;;;;;;17.88;55.96;102249.50;5009732;28;20386;-59
2022/07/15 08:22:47;;;;;;;14.13;6.70;;;;;;;17.83;55.62;102250.47;5009655;28;20052;-59
2022/07/15 08:25:12;;;;;;;14.88;7.35;;;;;;;17.72;55.46;102254.69;4994609;28;20030;-59
2022/07/15 08:27:37;;;;;;;14.85;7.20;;;;;;;17.78;55.94;102256.19;4988374;28;20065;-59
2022/07/15 08:30:03;;;;;;;13.05;6.60;;;;;;;17.83;55.43;102258.03;4990108;28;20034;-58
2022/07/15 08:32:28;;;;;;;15.65;7.68;;;;;;;17.70;55.37;102263.41;4990514;28;20035;-58
2022/07/15 08:34:54;;;;;;;17.33;7.13;;;;;;;17.71;53.94;102261.44;4991766;28;20430;-59
2022/07/15 08:37:19;;;;;;;13.68;7.28;;;;;;;17.85;54.05;102256.59;5009340;28;20036;-58
2022/07/15 08:39:45;;;;;;;13.00;6.50;;;;;;;17.99;52.98;102252.88;5009756;28;20033;-59
2022/07/15 08:42:10;;;;;;;13.93;7.00;;;;;;;18.20;53.20;102255.91;5009293;28;20438;-58
2022/07/15 08:44:36;;;;;;;17.02;6.75;;;;;;;18.29;53.30;102256.75;5009484;28;20034;-58
2022/07/15 08:47:03;;;;;;;15.57;6.72;;;;;;;18.17;53.08;102251.78;5009604;28;20350;-58
2022/07/15 08:49:30;;;;;;;14.10;6.85;;;;;;;18.17;52.77;102253.78;5009360;28;20056;-59
2022/07/15 08:51:58;;;;;;;16.92;6.93;;;;;;;18.23;52.75;102249.66;5009324;28;20457;-59
2022/07/15 08:54:24;;;;;;;13.85;7.10;;;;;;;18.30;51.85;102250.00;4991866;28;20488;-59
2022/07/15 08:56:50;;;;;;;12.88;6.75;;;;;;;18.46;50.86;102249.56;5009339;28;20084;-59
2022/07/15 08:59:16;;;;;;;13.82;7.10;;;;;;;18.55;49.89;102254.03;5009282;28;20029;-60
2022/07/15 09:01:44;;;;;;;13.98;6.78;;;;;;;18.42;48.35;102256.97;5009243;28;20129;-59
2022/07/15 09:04:09;;;;;;;11.45;7.00;;;;;;;18.42;49.31;102251.38;5009786;28;20034;-60
2022/07/15 09:06:37;;;;;;;16.30;7.07;;;;;;;18.37;50.04;102244.75;5009517;28;20034;-58
2022/07/15 09:09:18;;;;;;;15.32;6.90;;;;;;;18.61;51.46;102242.69;5008874;28;20029;-58
2022/07/15 09:11:43;;;;;;;15.38;7.40;;;;;;;18.83;50.49;102236.09;5008950;28;20042;-58
2022/07/15 09:14:13;;;;;;;14.15;7.00;;;;;;;18.98;49.33;102229.22;5008423;28;20038;-59
2022/07/15 09:16:38;;;;;;;13.82;6.88;;;;;;;19.02;50.12;102247.00;5008678;28;20040;-58
2022/07/15 09:19:04;;;;;;;13.85;6.80;;;;;;;19.00;49.02;102240.91;5008449;28;20046;-58
2022/07/15 09:21:29;;;;;;;12.52;6.88;;;;;;;19.00;49.06;102232.50;5008775;28;20056;-58
2022/07/15 09:23:54;;;;;;;12.95;7.07;;;;;;;18.94;48.60;102239.44;5008968;28;20037;-59
2022/07/15 09:26:26;;;;;;;15.18;7.13;;;;;;;18.92;49.40;102236.94;5006673;28;20034;-58
2022/07/15 09:28:51;;;;;;;12.38;7.03;;;;;;;19.23;49.16;102238.75;5008626;28;20096;-59
2022/07/15 09:34:14;;;;;;;14.38;6.60;;;;;;;19.52;46.27;102242.81;5008711;28;20044;-58
2022/07/15 09:36:50;;;;;;;12.05;6.75;;;;;;;19.35;46.27;102248.47;4990640;28;20034;-59
2022/07/15 09:39:16;;;;;;;14.13;6.90;;;;;;;19.40;46.00;102237.91;5008649;28;20125;-58
2022/07/15 09:41:43;;;;;;;13.85;6.60;;;;;;;19.51;46.38;102232.75;5008651;28;20457;-58
2022/07/15 09:44:11;;;;;;;15.60;7.13;;;;;;;19.77;47.86;102221.44;5008480;28;20025;-58
2022/07/15 09:46:47;;;;;;;15.77;7.10;;;;;;;20.05;46.67;102232.25;5008507;28;20062;-58
2022/07/15 09:49:32;;;;;;;14.93;7.40;;;;;;;20.03;46.34;102231.75;5008274;28;20455;-58
2022/07/15 09:52:02;;;;;;;15.90;6.90;;;;;;;19.85;46.63;102225.41;5008710;28;20028;-58
2022/07/15 09:54:33;;;;;;;14.48;6.80;;;;;;;19.72;46.92;102232.88;4989524;28;20049;-59
2022/07/15 09:57:00;;;;;;;12.85;6.75;;;;;;;19.61;46.80;102240.00;5008224;28;20071;-58
2022/07/15 09:59:27;;;;;;;12.85;6.85;;;;;;;19.42;46.25;102232.78;4990216;28;20426;-60
2022/07/15 10:01:53;;;;;;;11.02;6.55;;;;;;;19.40;44.88;102237.91;5007915;28;20033;-59
2022/07/15 10:04:23;;;;;;;14.35;7.07;;;;;;;19.17;44.91;102229.69;5008466;28;20038;-59
2022/07/15 10:06:51;;;;;;;10.07;6.80;;;;;;;19.28;43.99;102223.72;5007985;28;20026;-58
2022/07/15 10:09:22;;;;;;;13.18;6.75;;;;;;;19.64;44.74;102214.06;5008287;28;20121;-60
2022/07/15 10:11:52;;;;;;;10.90;6.80;;;;;;;19.99;44.97;102202.72;5008293;28;20088;-59
2022/07/15 10:14:24;;;;;;;13.70;6.95;;;;;;;20.36;44.63;102208.63;4989982;28;20450;-58
2022/07/15 10:17:10;;;;;;;15.25;6.65;;;;;;;20.50;45.04;102205.56;5007629;28;20335;-59
2022/07/15 10:20:12;;;;;;;14.10;6.80;;;;;;;20.38;45.51;102211.94;5007498;28;20052;-59
2022/07/15 10:22:56;;;;;;;11.50;6.50;;;;;;;20.12;45.21;102214.06;5007704;28;20034;-58
2022/07/15 10:25:49;;;;;;;14.18;6.75;;;;;;;19.75;45.84;102217.34;5007987;28;20041;-58
2022/07/15 10:28:24;;;;;;;12.65;6.90;;;;;;;19.58;45.17;102206.97;5007365;28;20030;-59
2022/07/15 10:31:13;;;;;;;10.40;6.70;;;;;;;19.92;44.64;102208.06;5007356;28;20061;-60
2022/07/15 10:33:38;;;;;;;10.77;6.63;;;;;;;20.33;43.25;102208.47;5007136;28;20201;-60
2022/07/15 10:36:05;;;;;;;10.43;6.80;;;;;;;20.71;42.90;102202.75;5006804;28;20044;-62
2022/07/15 10:38:33;;;;;;;12.38;6.93;;;;;;;21.14;42.78;102194.31;5007259;28;20029;-59
2022/07/15 10:41:03;;;;;;;10.93;6.85;;;;;;;21.53;42.27;102196.84;5007385;28;20022;-59
2022/07/15 10:43:40;;;;;;;12.00;6.70;;;;;;;21.62;42.20;102198.44;5007726;28;20030;-60
2022/07/15 10:46:28;;;;;;;10.98;6.60;;;;;;;21.55;42.34;102197.34;5007101;28;20052;-58
2022/07/15 10:49:16;;;;;;;11.05;6.75;;;;;;;21.31;42.39;102188.47;5007452;28;20030;-58
2022/07/15 10:51:44;;;;;;;12.57;6.70;;;;;;;21.16;42.57;102191.97;4993137;28;20080;-59
2022/07/15 10:54:30;;;;;;;12.82;6.93;;;;;;;21.34;42.71;102189.78;5007270;28;20033;-59
2022/07/15 10:56:56;;;;;;;14.73;7.10;;;;;;;21.46;40.54;102191.78;4978103;28;20108;-59
2022/07/15 10:59:24;;;;;;;10.90;6.72;;;;;;;21.38;40.45;102181.44;4989402;28;20027;-59
2022/07/15 11:02:11;;;;;;;13.80;6.90;;;;;;;21.61;42.13;102171.44;4989212;28;20024;-60
2022/07/15 11:04:37;;;;;;;10.10;6.38;;;;;;;21.58;40.03;102169.31;4972531;28;20195;-59
2022/07/15 11:07:07;;;;;;;11.43;6.93;;;;;;;21.43;40.07;102175.63;4993040;28;20148;-59
2022/07/15 11:09:57;;;;;;;10.35;6.25;;;;;;;21.29;41.32;102165.50;4992772;28;20105;-59
2022/07/15 11:12:43;;;;;;;13.52;6.70;;;;;;;21.24;41.19;102167.69;4992604;28;20379;-58
2022/07/15 11:15:12;;;;;;;9.18;6.45;;;;;;;21.58;41.13;102163.69;4993431;28;20038;-59
2022/07/15 11:17:38;;;;;;;13.32;6.60;;;;;;;21.65;40.27;102171.56;4992586;28;20478;-60
2022/07/15 11:20:10;;;;;;;10.18;6.70;;;;;;;21.30;41.06;102174.78;4992791;28;20027;-59
2022/07/15 11:22:40;;;;;;;10.95;6.47;;;;;;;21.48;40.99;102184.66;4993300;28;20034;-59
2022/07/15 11:25:06;;;;;;;12.63;6.80;;;;;;;21.91;40.64;102168.41;4992889;28;20049;-59